Time;durP1;ratioP1;P1;durP2;ratioP2;P2;SDS_P1;SDS_P2;PMS_P1;PMS_P2;Temp;Humidity;BMP_temperature;BMP_pressure;BME280_temperature;BME280_humidity;BME280_pressure;Samples;Min_cycle;Max_cycle;Signal;HPM_P1;HPM_P2
2021/12/17 12:34:13;;;;;;;2.35;2.15;;;;;;;;;;6236721;22;20074;-91
2021/12/17 12:37:07;;;;;;;2.10;1.90;;;;;;;;;;6222575;23;20012;-91
2021/12/17 12:39:33;;;;;;;3.47;1.90;;;;;;;;;;6192371;23;20016;-92
2021/12/17 12:42:20;;;;;;;1.92;1.83;;;;;;;;;;6196515;23;20021;-92
2021/12/17 12:44:46;;;;;;;2.47;1.90;;;;;;;;;;6216873;23;20039;-92
2021/12/17 12:47:26;;;;;;;1.70;1.50;;;;;;;;;;6216669;23;20005;-92
2021/12/17 12:49:51;;;;;;;2.67;2.10;;;;;;;;;;6216248;23;20106;-88
2021/12/17 12:52:29;;;;;;;2.88;2.33;;;;;;;;;;6217186;23;20004;-90
2021/12/17 12:55:12;;;;;;;3.85;1.90;;;;;;;;;;6215322;23;20005;-88
2021/12/17 12:57:43;;;;;;;4.03;2.75;;;;;;;;;;6217813;23;20000;-90
2021/12/17 13:00:12;;;;;;;3.88;2.28;;;;;;;;;;6216135;23;20039;-91
2021/12/17 13:02:39;;;;;;;4.88;2.60;;;;;;;;;;6216236;23;20012;-91
2021/12/17 13:05:06;;;;;;;3.45;2.20;;;;;;;;;;6215982;23;20375;-91
2021/12/17 13:07:40;;;;;;;3.10;2.55;;;;;;;;;;6217334;23;20148;-93
2021/12/17 13:10:12;;;;;;;4.53;2.80;;;;;;;;;;6216591;23;20004;-90
2021/12/17 13:12:39;;;;;;;82.88;37.38;;;;;;;;;;6216403;23;20011;-91
2021/12/17 13:15:50;;;;;;;3.13;2.42;;;;;;;;;;6216579;23;20001;-91
2021/12/17 13:24:07;;;;;;;3.70;2.88;;;;;;;;;;6218885;23;20060;-95
2021/12/17 13:26:34;;;;;;;3.90;3.28;;;;;;;;;;6216653;23;20028;-92
2021/12/17 13:29:12;;;;;;;3.17;2.88;;;;;;;;;;6215929;23;20062;-93
2021/12/17 13:31:49;;;;;;;3.67;3.00;;;;;;;;;;6216375;23;20009;-92
2021/12/17 13:34:22;;;;;;;4.45;3.20;;;;;;;;;;6215860;23;20051;-92
2021/12/17 13:36:57;;;;;;;3.15;2.90;;;;;;;;;;6216055;23;20001;-92
2021/12/17 13:39:25;;;;;;;3.67;2.80;;;;;;;;;;6215475;23;20331;-87
2021/12/17 13:41:51;;;;;;;3.45;2.22;;;;;;;;;;6217256;23;20009;-93
2021/12/17 13:44:32;;;;;;;3.15;2.38;;;;;;;;;;6216196;23;20083;-91
2021/12/17 13:47:20;;;;;;;2.35;1.98;;;;;;;;;;6217018;23;20112;-92
2021/12/17 13:49:53;;;;;;;1.58;1.48;;;;;;;;;;6215940;23;20051;-90
2021/12/17 13:52:22;;;;;;;1.88;1.77;;;;;;;;;;6216330;23;20012;-90
2021/12/17 13:54:49;;;;;;;1.80;1.70;;;;;;;;;;6217251;23;20036;-91
2021/12/17 13:57:19;;;;;;;4.00;1.70;;;;;;;;;;6216318;23;20076;-92
2021/12/17 13:59:46;;;;;;;1.85;1.65;;;;;;;;;;6216732;23;20095;-91
2021/12/17 14:02:17;;;;;;;3.88;2.00;;;;;;;;;;6216932;23;20020;-91
2021/12/17 14:04:58;;;;;;;2.15;1.95;;;;;;;;;;6216444;23;20005;-92
2021/12/17 14:07:30;;;;;;;4.85;2.40;;;;;;;;;;6216948;23;20519;-92
2021/12/17 14:10:20;;;;;;;4.30;2.28;;;;;;;;;;6216306;23;20035;-93
2021/12/17 14:12:45;;;;;;;;;;;;;;;;;;6215480;23;20016;-92
2021/12/17 14:15:16;;;;;;;3.95;2.90;;;;;;;;;;6215849;23;20250;-91
2021/12/17 14:17:44;;;;;;;5.70;2.90;;;;;;;;;;6215003;23;20083;-92
2021/12/17 14:20:17;;;;;;;4.93;2.53;;;;;;;;;;6216101;23;20000;-93
2021/12/17 14:22:44;;;;;;;2.22;2.00;;;;;;;;;;6217932;23;19996;-91
2021/12/17 14:25:25;;;;;;;3.40;2.47;;;;;;;;;;6216125;23;20442;-92
2021/12/17 14:27:52;;;;;;;4.68;2.40;;;;;;;;;;6216131;23;20001;-92
2021/12/17 14:30:38;;;;;;;2.33;1.88;;;;;;;;;;6216321;23;20035;-93
2021/12/17 14:33:16;;;;;;;2.55;1.80;;;;;;;;;;6216284;23;20009;-91
2021/12/17 14:35:56;;;;;;;2.53;1.73;;;;;;;;;;6217762;23;20301;-92
2021/12/17 14:38:36;;;;;;;2.67;2.20;;;;;;;;;;6217752;23;20008;-91
2021/12/17 14:41:03;;;;;;;3.97;2.38;;;;;;;;;;6218059;23;20005;-93
2021/12/17 14:43:40;;;;;;;8.43;5.22;;;;;;;;;;6216044;23;20027;-90
2021/12/17 14:46:24;;;;;;;7.32;4.50;;;;;;;;;;6216479;23;20008;-92
2021/12/17 14:49:23;;;;;;;10.90;5.57;;;;;;;;;;6215968;23;20001;-91
2021/12/17 15:05:27;;;;;;;13.38;6.93;;;;;;;;;;6225791;23;20339;-93
2021/12/17 15:07:56;;;;;;;4.90;4.25;;;;;;;;;;6217488;23;20071;-94
2021/12/17 15:10:23;;;;;;;2.30;2.10;;;;;;;;;;6217645;23;20074;-93
2021/12/17 15:12:55;;;;;;;1.85;1.75;;;;;;;;;;6217935;23;20231;-92
2021/12/17 15:15:22;;;;;;;2.78;2.58;;;;;;;;;;6218084;23;20087;-92
2021/12/17 15:17:51;;;;;;;7.20;5.53;;;;;;;;;;6217318;23;20332;-92
2021/12/17 15:20:23;;;;;;;10.32;5.97;;;;;;;;;;6218931;23;20309;-93
2021/12/17 15:22:49;;;;;;;6.78;3.92;;;;;;;;;;6217537;23;20008;-93
2021/12/17 15:25:15;;;;;;;8.10;4.05;;;;;;;;;;6217345;23;20428;-92
2021/12/17 15:27:42;;;;;;;11.30;3.90;;;;;;;;;;6217294;23;20005;-92
2021/12/17 15:30:21;;;;;;;7.63;3.55;;;;;;;;;;6219569;23;20000;-93
2021/12/17 15:32:48;;;;;;;5.32;2.92;;;;;;;;;;6222063;23;20083;-92
2021/12/17 15:35:17;;;;;;;3.95;2.90;;;;;;;;;;6218626;23;20028;-93
2021/12/17 15:37:43;;;;;;;4.97;2.83;;;;;;;;;;6218436;23;20060;-92
2021/12/17 15:40:09;;;;;;;6.53;2.60;;;;;;;;;;6219186;23;20004;-92
2021/12/17 15:42:35;;;;;;;5.20;2.13;;;;;;;;;;6219660;23;20020;-93
2021/12/17 15:45:00;;;;;;;4.18;2.65;;;;;;;;;;6220490;23;20019;-92
2021/12/17 15:47:26;;;;;;;7.65;2.95;;;;;;;;;;6220457;23;20051;-93
2021/12/17 15:49:52;;;;;;;7.45;2.63;;;;;;;;;;6219953;23;20012;-87
2021/12/17 15:52:17;;;;;;;8.45;2.50;;;;;;;;;;6244801;23;20008;-93
2021/12/17 15:54:43;;;;;;;4.95;3.20;;;;;;;;;;6220115;23;20000;-93
2021/12/17 15:57:10;;;;;;;4.03;2.55;;;;;;;;;;6220122;23;20005;-93
2021/12/17 15:59:35;;;;;;;8.63;3.53;;;;;;;;;;6220123;23;20009;-94
2021/12/17 16:02:02;;;;;;;9.90;3.70;;;;;;;;;;6245561;23;20329;-93
2021/12/17 16:04:32;;;;;;;13.15;4.90;;;;;;;;;;6220028;23;20000;-89
2021/12/17 16:07:00;;;;;;;9.85;3.83;;;;;;;;;;6221958;23;20462;-93
2021/12/17 16:12:02;;;;;;;5.40;3.10;;;;;;;;;;6231220;23;20008;-92
2021/12/17 16:22:40;;;;;;;5.55;3.25;;;;;;;;;;6220737;23;20024;-94
2021/12/17 16:25:06;;;;;;;6.60;3.17;;;;;;;;;;6219762;23;20000;-93
2021/12/17 16:27:32;;;;;;;7.85;2.60;;;;;;;;;;6219576;23;20008;-95
2021/12/17 16:29:58;;;;;;;7.15;2.88;;;;;;;;;;6244880;23;20001;-93
2021/12/17 16:32:23;;;;;;;4.00;2.97;;;;;;;;;;6219693;23;20027;-91
2021/12/17 16:34:49;;;;;;;6.28;2.90;;;;;;;;;;6219197;23;20011;-92
2021/12/17 16:37:15;;;;;;;7.45;2.63;;;;;;;;;;6218779;23;20008;-92
2021/12/17 16:39:41;;;;;;;3.60;2.78;;;;;;;;;;6217871;23;20019;-93
2021/12/17 16:42:14;;;;;;;12.50;2.60;;;;;;;;;;6217403;23;20012;-91
2021/12/17 16:44:51;;;;;;;5.82;3.33;;;;;;;;;;6218339;23;20475;-93
2021/12/17 16:47:23;;;;;;;6.30;3.10;;;;;;;;;;6218066;23;20004;-92
2021/12/17 16:49:48;;;;;;;9.90;5.40;;;;;;;;;;6217638;23;20008;-93
2021/12/17 16:52:14;;;;;;;11.68;9.20;;;;;;;;;;6218485;23;20008;-93
2021/12/17 16:54:40;;;;;;;11.32;6.00;;;;;;;;;;6244691;23;20122;-90
2021/12/17 16:57:05;;;;;;;14.10;10.05;;;;;;;;;;6245354;23;20045;-95
2021/12/17 16:59:31;;;;;;;22.13;14.27;;;;;;;;;;6218709;23;20000;-93
2021/12/17 17:01:56;;;;;;;13.98;8.00;;;;;;;;;;6219175;23;20012;-92
2021/12/17 17:04:22;;;;;;;130.63;57.58;;;;;;;;;;6220138;23;20060;-95
2021/12/17 17:06:47;;;;;;;222.43;100.18;;;;;;;;;;6219932;23;20154;-95
2021/12/17 17:09:13;;;;;;;29.73;13.10;;;;;;;;;;6216959;23;20431;-91
2021/12/17 17:11:40;;;;;;;11.90;6.40;;;;;;;;;;6216461;23;20412;-92
2021/12/17 17:14:06;;;;;;;12.43;7.35;;;;;;;;;;6218269;23;19997;-90
2021/12/17 17:16:32;;;;;;;205.10;72.22;;;;;;;;;;6217608;23;20091;-90
2021/12/17 17:18:57;;;;;;;584.20;242.68;;;;;;;;;;6218872;23;20090;-93
2021/12/17 17:21:25;;;;;;;55.35;22.35;;;;;;;;;;6217819;23;20479;-94
2021/12/17 17:23:51;;;;;;;52.15;19.30;;;;;;;;;;6216291;23;20009;-93
2021/12/17 17:26:17;;;;;;;37.65;21.63;;;;;;;;;;6218050;23;20024;-92
2021/12/17 17:28:43;;;;;;;26.45;17.25;;;;;;;;;;6216079;23;20001;-89
2021/12/17 17:31:10;;;;;;;20.38;11.63;;;;;;;;;;6215999;23;20027;-92
2021/12/17 17:33:36;;;;;;;17.25;11.90;;;;;;;;;;6215881;23;20013;-89
2021/12/17 17:36:02;;;;;;;23.45;20.40;;;;;;;;;;6216944;23;20305;-89
2021/12/17 17:38:28;;;;;;;12.38;7.78;;;;;;;;;;6217248;23;20028;-90
2021/12/17 17:40:54;;;;;;;12.57;8.95;;;;;;;;;;6215601;23;20392;-91
2021/12/17 17:43:19;;;;;;;10.63;6.82;;;;;;;;;;6215211;23;20012;-91
2021/12/17 17:45:45;;;;;;;8.88;6.65;;;;;;;;;;6219328;23;20490;-91
2021/12/17 17:48:14;;;;;;;14.45;7.20;;;;;;;;;;6219853;23;20083;-88
2021/12/17 17:50:41;;;;;;;17.17;9.23;;;;;;;;;;6216547;23;20032;-88
2021/12/17 17:53:08;;;;;;;36.45;29.27;;;;;;;;;;6214522;23;20000;-87
2021/12/17 17:55:35;;;;;;;17.98;14.43;;;;;;;;;;6216692;23;20447;-88
2021/12/17 17:58:01;;;;;;;10.70;7.63;;;;;;;;;;6214981;23;20015;-92
2021/12/17 18:00:26;;;;;;;19.13;17.10;;;;;;;;;;6214984;23;20032;-90
2021/12/17 18:02:52;;;;;;;15.43;11.52;;;;;;;;;;6216511;23;20087;-89
2021/12/17 18:05:20;;;;;;;14.43;9.07;;;;;;;;;;6214976;23;20054;-88
2021/12/17 18:07:46;;;;;;;14.57;9.80;;;;;;;;;;6214683;23;20062;-89
2021/12/17 18:10:13;;;;;;;17.95;8.02;;;;;;;;;;6214934;23;20095;-89
2021/12/17 18:12:54;;;;;;;9.13;7.22;;;;;;;;;;6214990;23;20008;-89
2021/12/17 18:15:21;;;;;;;13.20;8.43;;;;;;;;;;6217910;23;20001;-88
2021/12/17 18:17:47;;;;;;;18.55;10.45;;;;;;;;;;6217466;23;20001;-88
2021/12/17 18:20:15;;;;;;;16.83;10.40;;;;;;;;;;6216532;23;20050;-89
2021/12/17 18:22:40;;;;;;;17.27;13.48;;;;;;;;;;6216333;23;19997;-89
2021/12/17 18:25:07;;;;;;;14.02;8.77;;;;;;;;;;6215393;23;20009;-93
2021/12/17 18:27:34;;;;;;;15.27;9.88;;;;;;;;;;6216457;23;20031;-87
2021/12/17 18:29:59;;;;;;;11.27;8.15;;;;;;;;;;6216134;23;20534;-86
2021/12/17 18:32:25;;;;;;;19.88;14.57;;;;;;;;;;6216135;23;20028;-86
2021/12/17 18:34:50;;;;;;;17.90;14.00;;;;;;;;;;6216399;23;20005;-86
2021/12/17 18:37:16;;;;;;;13.05;8.15;;;;;;;;;;6216002;23;20000;-86
2021/12/17 18:39:42;;;;;;;11.10;7.55;;;;;;;;;;6216726;23;20328;-85
2021/12/17 18:44:53;;;;;;;9.52;5.80;;;;;;;;;;6216848;23;20035;-85
2021/12/17 18:47:19;;;;;;;5.32;4.50;;;;;;;;;;6215667;23;20076;-89
2021/12/17 18:49:45;;;;;;;4.68;4.13;;;;;;;;;;6216429;23;20409;-89
2021/12/17 18:52:10;;;;;;;6.13;4.70;;;;;;;;;;6216557;23;20007;-89
2021/12/17 18:54:36;;;;;;;6.20;5.03;;;;;;;;;;6214999;23;20009;-90
2021/12/17 18:57:02;;;;;;;8.88;5.25;;;;;;;;;;6216260;23;20079;-88
2021/12/17 18:59:28;;;;;;;5.75;5.10;;;;;;;;;;6215976;23;20008;-88
2021/12/17 19:01:54;;;;;;;22.63;11.40;;;;;;;;;;6216031;23;20062;-87
2021/12/17 19:04:19;;;;;;;14.38;8.20;;;;;;;;;;6216600;23;20004;-89
2021/12/17 19:06:49;;;;;;;17.55;8.35;;;;;;;;;;6218216;23;20005;-89
2021/12/17 19:09:15;;;;;;;;;;;;;;;;;;6218819;23;20004;-88
2021/12/17 19:11:40;;;;;;;6.20;3.65;;;;;;;;;;6218303;23;20238;-89
2021/12/17 19:14:07;;;;;;;4.30;2.83;;;;;;;;;;6218345;23;20335;-91
2021/12/17 19:16:33;;;;;;;8.18;4.25;;;;;;;;;;6218444;23;20324;-87
2021/12/17 19:21:34;;;;;;;12.23;7.47;;;;;;;;;;6222382;23;20004;-87
2021/12/17 19:24:04;;;;;;;10.07;6.80;;;;;;;;;;6217762;23;20074;-89
2021/12/17 19:26:30;;;;;;;10.88;6.93;;;;;;;;;;6218037;23;20001;-88
2021/12/17 19:28:56;;;;;;;8.93;6.80;;;;;;;;;;6217657;23;20091;-87
2021/12/17 19:31:23;;;;;;;10.80;6.68;;;;;;;;;;6218367;23;20005;-87
2021/12/17 19:33:48;;;;;;;10.27;7.55;;;;;;;;;;6218169;23;20024;-89
2021/12/17 19:36:14;;;;;;;6.18;5.57;;;;;;;;;;6217983;23;20324;-87
2021/12/17 19:38:40;;;;;;;10.68;6.38;;;;;;;;;;6218011;23;20048;-89
2021/12/17 19:41:09;;;;;;;121.85;40.22;;;;;;;;;;6217910;23;20004;-85
2021/12/17 19:43:39;;;;;;;37.53;15.23;;;;;;;;;;6217500;23;20013;-88
2021/12/17 19:46:06;;;;;;;15.73;8.93;;;;;;;;;;6217999;23;20076;-89
2021/12/17 19:48:37;;;;;;;10.07;6.45;;;;;;;;;;6216603;23;20013;-86
2021/12/17 19:51:06;;;;;;;12.32;7.75;;;;;;;;;;6216987;23;20064;-88
2021/12/17 19:53:33;;;;;;;17.80;14.05;;;;;;;;;;6217828;23;20009;-87
2021/12/17 19:55:59;;;;;;;17.27;12.05;;;;;;;;;;6217776;23;20004;-88
2021/12/17 19:58:24;;;;;;;20.95;12.25;;;;;;;;;;6217530;23;19997;-88
2021/12/17 20:00:50;;;;;;;19.10;12.60;;;;;;;;;;6217818;23;20001;-88
2021/12/17 20:03:17;;;;;;;18.92;11.80;;;;;;;;;;6217896;23;20004;-89
2021/12/17 20:05:43;;;;;;;26.08;13.23;;;;;;;;;;6217825;23;20011;-89
2021/12/17 20:08:10;;;;;;;18.17;10.18;;;;;;;;;;6216146;23;20009;-89
2021/12/17 20:10:37;;;;;;;7.70;4.20;;;;;;;;;;6217754;23;20011;-87
2021/12/17 20:13:04;;;;;;;6.72;4.97;;;;;;;;;;6217774;23;20020;-89
2021/12/17 20:15:31;;;;;;;6.00;4.10;;;;;;;;;;6217280;23;20064;-89
2021/12/17 20:17:56;;;;;;;7.80;4.60;;;;;;;;;;6217253;23;20067;-89
2021/12/17 20:20:23;;;;;;;7.55;4.75;;;;;;;;;;6217661;23;20383;-89
2021/12/17 20:22:49;;;;;;;6.78;4.63;;;;;;;;;;6216180;23;20432;-86
2021/12/17 20:25:16;;;;;;;13.75;10.15;;;;;;;;;;6218542;23;20309;-91
2021/12/17 20:27:42;;;;;;;15.75;13.82;;;;;;;;;;6217332;23;20379;-88
2021/12/17 20:30:11;;;;;;;15.02;10.25;;;;;;;;;;6215962;23;20013;-88
2021/12/17 20:32:38;;;;;;;12.75;10.43;;;;;;;;;;6217491;23;20054;-87
2021/12/17 20:35:05;;;;;;;9.52;8.63;;;;;;;;;;6217347;23;20024;-87
2021/12/17 20:37:30;;;;;;;9.38;8.10;;;;;;;;;;6217162;23;20454;-87
2021/12/17 20:39:56;;;;;;;345.80;139.23;;;;;;;;;;6217010;23;20035;-87
2021/12/17 20:43:15;;;;;;;16.05;10.18;;;;;;;;;;6217398;23;20143;-87
2021/12/17 20:45:11;;;;;;;14.20;7.65;;;;;;;;;;6200933;23;20004;-88
2021/12/17 20:47:36;;;;;;;232.30;77.68;;;;;;;;;;6217135;23;20127;-87
2021/12/17 20:50:04;;;;;;;56.63;23.80;;;;;;;;;;6217089;23;20028;-86
2021/12/17 20:52:30;;;;;;;79.63;30.85;;;;;;;;;;6217281;23;20072;-87
2021/12/17 20:54:55;;;;;;;17.20;10.82;;;;;;;;;;6217288;23;20028;-87
2021/12/17 20:57:21;;;;;;;19.65;12.73;;;;;;;;;;6217032;23;20007;-87
2021/12/17 20:59:47;;;;;;;22.20;12.70;;;;;;;;;;6217083;23;20008;-88
2021/12/17 21:02:13;;;;;;;18.95;12.82;;;;;;;;;;6216993;23;20028;-87
2021/12/17 21:04:38;;;;;;;19.33;11.50;;;;;;;;;;6215284;23;20023;-87
2021/12/17 21:07:04;;;;;;;23.60;13.55;;;;;;;;;;6217064;23;20078;-88
2021/12/17 21:09:30;;;;;;;26.13;13.18;;;;;;;;;;6217300;23;20026;-88
2021/12/17 21:11:59;;;;;;;20.27;11.63;;;;;;;;;;6217013;23;19997;-88
2021/12/17 21:14:25;;;;;;;20.57;11.40;;;;;;;;;;6217181;23;20020;-88
2021/12/17 21:16:53;;;;;;;15.85;10.45;;;;;;;;;;6216851;23;20005;-89
2021/12/17 21:19:21;;;;;;;14.13;9.13;;;;;;;;;;6215260;23;20042;-88
2021/12/17 21:21:48;;;;;;;13.88;10.18;;;;;;;;;;6216919;23;20003;-86
2021/12/17 21:24:13;;;;;;;15.88;10.32;;;;;;;;;;6216892;23;20008;-88
2021/12/17 21:26:41;;;;;;;13.13;8.85;;;;;;;;;;6215218;23;20005;-88
2021/12/17 21:29:09;;;;;;;14.70;9.57;;;;;;;;;;6216584;23;20416;-89
2021/12/17 21:31:36;;;;;;;17.38;11.32;;;;;;;;;;6216826;23;20375;-88
2021/12/17 21:34:03;;;;;;;12.45;9.02;;;;;;;;;;6216781;23;20016;-88
2021/12/17 21:36:28;;;;;;;13.00;9.18;;;;;;;;;;6216842;23;20000;-88
2021/12/17 21:38:54;;;;;;;9.38;6.60;;;;;;;;;;6216616;23;20012;-88
2021/12/17 21:41:21;;;;;;;14.82;8.85;;;;;;;;;;6217073;23;20009;-88
2021/12/17 21:43:46;;;;;;;13.43;8.65;;;;;;;;;;6214922;23;20103;-88
2021/12/17 21:46:12;;;;;;;15.05;8.77;;;;;;;;;;6216789;23;20448;-85
2021/12/17 21:48:38;;;;;;;12.73;8.10;;;;;;;;;;6216360;23;20080;-88
2021/12/17 21:51:04;;;;;;;14.32;8.95;;;;;;;;;;6217057;23;20008;-88
2021/12/17 21:53:30;;;;;;;16.88;9.98;;;;;;;;;;6215071;23;20438;-89
2021/12/17 21:55:55;;;;;;;14.75;10.48;;;;;;;;;;6216646;23;20032;-88
2021/12/17 21:58:22;;;;;;;22.92;13.70;;;;;;;;;;6216506;23;20443;-88
2021/12/17 22:00:55;;;;;;;20.33;13.07;;;;;;;;;;6216742;23;20323;-88
2021/12/17 22:03:26;;;;;;;23.27;14.25;;;;;;;;;;6215171;23;20008;-87
2021/12/17 22:05:55;;;;;;;20.83;12.95;;;;;;;;;;6214943;23;20009;-89
2021/12/17 22:08:22;;;;;;;18.58;12.40;;;;;;;;;;6215011;23;20015;-88
2021/12/17 22:10:49;;;;;;;17.35;11.63;;;;;;;;;;6215917;23;20328;-88
2021/12/17 22:13:16;;;;;;;18.08;11.90;;;;;;;;;;6216218;23;20012;-88
2021/12/17 22:15:42;;;;;;;15.32;11.05;;;;;;;;;;6216464;23;20069;-88
2021/12/17 22:18:07;;;;;;;20.90;11.40;;;;;;;;;;6216331;23;20443;-88
2021/12/17 22:23:03;;;;;;;17.58;11.95;;;;;;;;;;6220585;23;20040;-88
2021/12/17 22:25:29;;;;;;;17.92;10.48;;;;;;;;;;6216493;23;20076;-88
2021/12/17 22:27:54;;;;;;;18.02;9.93;;;;;;;;;;6216342;23;20020;-88
2021/12/17 22:30:21;;;;;;;18.02;11.50;;;;;;;;;;6239986;23;20380;-88
2021/12/17 22:32:46;;;;;;;18.33;10.27;;;;;;;;;;6216467;23;20317;-88
2021/12/17 22:35:13;;;;;;;19.85;12.82;;;;;;;;;;6216244;23;20004;-88
2021/12/17 22:37:41;;;;;;;19.30;13.10;;;;;;;;;;6216538;23;20412;-88
2021/12/17 22:40:09;;;;;;;10.75;7.93;;;;;;;;;;6217384;23;20467;-88
2021/12/17 22:42:34;;;;;;;10.68;6.75;;;;;;;;;;6218310;23;20088;-88
2021/12/17 22:45:00;;;;;;;12.65;8.43;;;;;;;;;;6219693;23;20034;-89
2021/12/17 22:47:25;;;;;;;9.98;7.30;;;;;;;;;;6218529;23;20443;-87
2021/12/17 22:49:50;;;;;;;13.65;9.68;;;;;;;;;;6218854;23;20004;-85
2021/12/17 22:52:16;;;;;;;16.40;10.75;;;;;;;;;;6218079;23;20004;-87
2021/12/17 22:54:42;;;;;;;11.57;8.55;;;;;;;;;;6218442;23;20008;-88
2021/12/17 22:57:07;;;;;;;13.45;7.80;;;;;;;;;;6217927;23;20004;-86
2021/12/17 22:59:32;;;;;;;8.32;5.85;;;;;;;;;;6216517;23;20367;-87
2021/12/17 23:01:58;;;;;;;11.68;8.25;;;;;;;;;;6218077;23;20000;-87
2021/12/17 23:04:32;;;;;;;13.02;7.25;;;;;;;;;;6218158;23;20000;-87
2021/12/17 23:07:06;;;;;;;11.13;8.75;;;;;;;;;;6218254;23;20320;-87
2021/12/17 23:09:34;;;;;;;10.93;8.23;;;;;;;;;;6218066;23;20001;-87
2021/12/17 23:12:19;;;;;;;12.60;8.07;;;;;;;;;;6217840;23;20005;-86
2021/12/17 23:14:48;;;;;;;10.40;7.07;;;;;;;;;;6217958;23;20070;-87
2021/12/17 23:17:16;;;;;;;8.75;6.10;;;;;;;;;;6217631;23;20072;-87
2021/12/17 23:19:46;;;;;;;11.35;6.93;;;;;;;;;;6218200;23;20014;-86
2021/12/17 23:22:12;;;;;;;;;;;;;;;;;;6218343;23;20024;-87
2021/12/17 23:24:37;;;;;;;7.68;5.80;;;;;;;;;;6217901;23;19915;-93
2021/12/17 23:27:03;;;;;;;10.40;5.95;;;;;;;;;;6216697;23;20009;-86
2021/12/17 23:29:29;;;;;;;9.23;5.72;;;;;;;;;;6217858;23;20009;-88
2021/12/17 23:31:55;;;;;;;7.53;4.60;;;;;;;;;;6218245;23;20317;-87
2021/12/17 23:36:54;;;;;;;6.90;4.40;;;;;;;;;;6221670;23;20008;-87
2021/12/17 23:39:20;;;;;;;7.72;5.00;;;;;;;;;;6217687;23;20009;-87
2021/12/17 23:41:46;;;;;;;8.63;6.05;;;;;;;;;;6217592;23;20134;-88
2021/12/17 23:44:11;;;;;;;6.70;4.97;;;;;;;;;;6217981;23;20100;-87
2021/12/17 23:46:37;;;;;;;7.47;4.82;;;;;;;;;;6217820;23;20428;-87
2021/12/17 23:49:04;;;;;;;5.90;5.18;;;;;;;;;;6217728;23;20027;-87
2021/12/17 23:51:31;;;;;;;8.48;5.72;;;;;;;;;;6217021;23;20004;-88
2021/12/17 23:53:56;;;;;;;6.03;4.82;;;;;;;;;;6217545;23;20004;-87
2021/12/17 23:56:21;;;;;;;8.55;5.05;;;;;;;;;;6217870;23;20494;-88
2021/12/17 23:58:47;;;;;;;5.45;4.70;;;;;;;;;;6217412;23;20005;-87
